sensor_id;sensor_type;location;lat;lon;timestamp;P1;durP1;ratioP1;P2;durP2;ratioP2
73733;SDS011;62039;50.000;9.064;2023-04-23T00:00:15;2.07;;;1.60;;
73733;SDS011;62039;50.000;9.064;2023-04-23T00:02:45;1.50;;;1.40;;
73733;SDS011;62039;50.000;9.064;2023-04-23T00:05:16;2.10;;;1.63;;
73733;SDS011;62039;50.000;9.064;2023-04-23T00:07:44;1.40;;;1.30;;
73733;SDS011;62039;50.000;9.064;2023-04-23T00:10:12;2.37;;;1.80;;
73733;SDS011;62039;50.000;9.064;2023-04-23T00:12:40;2.57;;;2.00;;
73733;SDS011;62039;50.000;9.064;2023-04-23T00:15:08;1.73;;;1.40;;
73733;SDS011;62039;50.000;9.064;2023-04-23T00:17:36;2.10;;;1.63;;
73733;SDS011;62039;50.000;9.064;2023-04-23T00:20:07;1.87;;;1.53;;
73733;SDS011;62039;50.000;9.064;2023-04-23T00:22:34;1.60;;;1.37;;
73733;SDS011;62039;50.000;9.064;2023-04-23T00:25:01;2.03;;;1.50;;
73733;SDS011;62039;50.000;9.064;2023-04-23T00:27:29;3.00;;;1.87;;
73733;SDS011;62039;50.000;9.064;2023-04-23T00:29:55;1.83;;;1.57;;
73733;SDS011;62039;50.000;9.064;2023-04-23T00:32:22;2.87;;;1.73;;
73733;SDS011;62039;50.000;9.064;2023-04-23T00:34:50;1.70;;;1.60;;
73733;SDS011;62039;50.000;9.064;2023-04-23T00:37:19;3.10;;;1.63;;
73733;SDS011;62039;50.000;9.064;2023-04-23T00:39:46;1.90;;;1.70;;
73733;SDS011;62039;50.000;9.064;2023-04-23T00:42:13;2.73;;;1.90;;
73733;SDS011;62039;50.000;9.064;2023-04-23T00:44:40;2.73;;;2.00;;
73733;SDS011;62039;50.000;9.064;2023-04-23T00:47:08;2.80;;;2.10;;
73733;SDS011;62039;50.000;9.064;2023-04-23T00:49:35;2.83;;;1.70;;
73733;SDS011;62039;50.000;9.064;2023-04-23T00:52:03;1.97;;;1.77;;
73733;SDS011;62039;50.000;9.064;2023-04-23T00:54:32;2.40;;;1.90;;
73733;SDS011;62039;50.000;9.064;2023-04-23T00:56:59;2.93;;;2.50;;
73733;SDS011;62039;50.000;9.064;2023-04-23T00:59:27;3.20;;;2.13;;
73733;SDS011;62039;50.000;9.064;2023-04-23T01:01:55;2.40;;;2.20;;
73733;SDS011;62039;50.000;9.064;2023-04-23T01:04:23;2.33;;;2.13;;
73733;SDS011;62039;50.000;9.064;2023-04-23T01:06:52;2.90;;;2.50;;
73733;SDS011;62039;50.000;9.064;2023-04-23T01:09:20;3.60;;;2.40;;
73733;SDS011;62039;50.000;9.064;2023-04-23T01:11:50;2.47;;;2.23;;
73733;SDS011;62039;50.000;9.064;2023-04-23T01:14:18;4.40;;;2.17;;
73733;SDS011;62039;50.000;9.064;2023-04-23T01:16:45;2.70;;;2.50;;
73733;SDS011;62039;50.000;9.064;2023-04-23T01:19:12;2.47;;;2.00;;
73733;SDS011;62039;50.000;9.064;2023-04-23T01:21:39;2.13;;;1.93;;
73733;SDS011;62039;50.000;9.064;2023-04-23T01:24:09;2.10;;;1.90;;
73733;SDS011;62039;50.000;9.064;2023-04-23T01:26:37;1.80;;;1.70;;
73733;SDS011;62039;50.000;9.064;2023-04-23T01:29:04;2.47;;;2.27;;
73733;SDS011;62039;50.000;9.064;2023-04-23T01:31:32;2.10;;;1.90;;
73733;SDS011;62039;50.000;9.064;2023-04-23T01:33:59;3.03;;;2.13;;
73733;SDS011;62039;50.000;9.064;2023-04-23T01:36:27;2.40;;;1.97;;
73733;SDS011;62039;50.000;9.064;2023-04-23T01:38:55;2.17;;;1.83;;
73733;SDS011;62039;50.000;9.064;2023-04-23T01:41:25;2.77;;;1.93;;
73733;SDS011;62039;50.000;9.064;2023-04-23T01:43:52;2.77;;;1.90;;
73733;SDS011;62039;50.000;9.064;2023-04-23T01:46:19;1.90;;;1.77;;
73733;SDS011;62039;50.000;9.064;2023-04-23T01:48:46;2.40;;;2.20;;
73733;SDS011;62039;50.000;9.064;2023-04-23T01:51:13;1.93;;;1.70;;
73733;SDS011;62039;50.000;9.064;2023-04-23T01:53:40;1.80;;;1.70;;
73733;SDS011;62039;50.000;9.064;2023-04-23T01:56:07;2.50;;;2.10;;
73733;SDS011;62039;50.000;9.064;2023-04-23T01:58:37;2.00;;;1.90;;
73733;SDS011;62039;50.000;9.064;2023-04-23T02:01:04;1.87;;;1.67;;
73733;SDS011;62039;50.000;9.064;2023-04-23T02:03:31;1.87;;;1.73;;
73733;SDS011;62039;50.000;9.064;2023-04-23T02:05:59;2.07;;;1.87;;
73733;SDS011;62039;50.000;9.064;2023-04-23T02:08:26;2.30;;;2.10;;
73733;SDS011;62039;50.000;9.064;2023-04-23T02:10:53;3.40;;;2.60;;
73733;SDS011;62039;50.000;9.064;2023-04-23T02:13:20;2.77;;;2.00;;
73733;SDS011;62039;50.000;9.064;2023-04-23T02:15:50;2.27;;;2.07;;
73733;SDS011;62039;50.000;9.064;2023-04-23T02:18:17;1.97;;;1.83;;
73733;SDS011;62039;50.000;9.064;2023-04-23T02:20:43;2.23;;;2.00;;
73733;SDS011;62039;50.000;9.064;2023-04-23T02:23:10;2.03;;;1.83;;
73733;SDS011;62039;50.000;9.064;2023-04-23T02:25:37;2.37;;;2.17;;
73733;SDS011;62039;50.000;9.064;2023-04-23T02:28:05;2.20;;;2.10;;
73733;SDS011;62039;50.000;9.064;2023-04-23T02:30:32;2.50;;;2.30;;
73733;SDS011;62039;50.000;9.064;2023-04-23T02:33:01;2.30;;;2.10;;
73733;SDS011;62039;50.000;9.064;2023-04-23T02:35:28;2.33;;;1.80;;
73733;SDS011;62039;50.000;9.064;2023-04-23T02:37:55;2.30;;;2.10;;
73733;SDS011;62039;50.000;9.064;2023-04-23T02:40:22;2.37;;;2.10;;
73733;SDS011;62039;50.000;9.064;2023-04-23T02:42:49;2.30;;;2.10;;
73733;SDS011;62039;50.000;9.064;2023-04-23T02:45:16;2.50;;;2.30;;
73733;SDS011;62039;50.000;9.064;2023-04-23T02:47:43;2.30;;;2.10;;
73733;SDS011;62039;50.000;9.064;2023-04-23T02:50:13;2.23;;;1.97;;
73733;SDS011;62039;50.000;9.064;2023-04-23T02:52:39;3.37;;;2.10;;
73733;SDS011;62039;50.000;9.064;2023-04-23T02:55:07;3.10;;;2.07;;
73733;SDS011;62039;50.000;9.064;2023-04-23T02:57:34;2.33;;;2.13;;
73733;SDS011;62039;50.000;9.064;2023-04-23T03:00:02;2.07;;;1.93;;
73733;SDS011;62039;50.000;9.064;2023-04-23T03:02:30;1.97;;;1.87;;
73733;SDS011;62039;50.000;9.064;2023-04-23T03:04:57;2.10;;;1.87;;
73733;SDS011;62039;50.000;9.064;2023-04-23T03:07:27;2.33;;;2.13;;
73733;SDS011;62039;50.000;9.064;2023-04-23T03:09:54;3.00;;;2.30;;
73733;SDS011;62039;50.000;9.064;2023-04-23T03:12:20;2.30;;;2.10;;
73733;SDS011;62039;50.000;9.064;2023-04-23T03:14:47;2.27;;;2.07;;
73733;SDS011;62039;50.000;9.064;2023-04-23T03:17:14;2.73;;;1.90;;
73733;SDS011;62039;50.000;9.064;2023-04-23T03:19:41;2.30;;;2.10;;
73733;SDS011;62039;50.000;9.064;2023-04-23T03:22:08;2.33;;;1.80;;
73733;SDS011;62039;50.000;9.064;2023-04-23T03:24:38;2.27;;;2.07;;
73733;SDS011;62039;50.000;9.064;2023-04-23T03:27:05;2.43;;;2.23;;
73733;SDS011;62039;50.000;9.064;2023-04-23T03:29:32;2.07;;;1.97;;
73733;SDS011;62039;50.000;9.064;2023-04-23T03:31:59;2.43;;;2.20;;
73733;SDS011;62039;50.000;9.064;2023-04-23T03:34:26;2.03;;;1.90;;
73733;SDS011;62039;50.000;9.064;2023-04-23T03:36:53;2.00;;;1.90;;
73733;SDS011;62039;50.000;9.064;2023-04-23T03:39:20;2.17;;;1.80;;
73733;SDS011;62039;50.000;9.064;2023-04-23T03:41:49;1.90;;;1.70;;
73733;SDS011;62039;50.000;9.064;2023-04-23T03:44:16;1.97;;;1.87;;
73733;SDS011;62039;50.000;9.064;2023-04-23T03:46:43;1.70;;;1.60;;
73733;SDS011;62039;50.000;9.064;2023-04-23T03:49:10;2.10;;;1.83;;
73733;SDS011;62039;50.000;9.064;2023-04-23T03:51:37;1.87;;;1.77;;
73733;SDS011;62039;50.000;9.064;2023-04-23T03:54:04;1.70;;;1.60;;
73733;SDS011;62039;50.000;9.064;2023-04-23T03:56:31;1.90;;;1.80;;
73733;SDS011;62039;50.000;9.064;2023-04-23T03:59:00;1.77;;;1.67;;
73733;SDS011;62039;50.000;9.064;2023-04-23T04:01:27;1.97;;;1.87;;
73733;SDS011;62039;50.000;9.064;2023-04-23T04:03:54;2.10;;;1.90;;
73733;SDS011;62039;50.000;9.064;2023-04-23T04:06:21;2.00;;;1.90;;
73733;SDS011;62039;50.000;9.064;2023-04-23T04:08:48;2.07;;;1.97;;
73733;SDS011;62039;50.000;9.064;2023-04-23T04:11:15;2.30;;;2.10;;
73733;SDS011;62039;50.000;9.064;2023-04-23T04:13:42;2.10;;;1.90;;
73733;SDS011;62039;50.000;9.064;2023-04-23T04:16:12;2.20;;;2.00;;
73733;SDS011;62039;50.000;9.064;2023-04-23T04:18:39;2.10;;;1.90;;
73733;SDS011;62039;50.000;9.064;2023-04-23T04:21:05;2.50;;;1.97;;
73733;SDS011;62039;50.000;9.064;2023-04-23T04:23:32;1.70;;;1.60;;
73733;SDS011;62039;50.000;9.064;2023-04-23T04:25:59;1.80;;;1.70;;
73733;SDS011;62039;50.000;9.064;2023-04-23T04:28:26;3.17;;;1.70;;
73733;SDS011;62039;50.000;9.064;2023-04-23T04:30:54;2.30;;;2.10;;
73733;SDS011;62039;50.000;9.064;2023-04-23T04:33:23;2.17;;;1.97;;
73733;SDS011;62039;50.000;9.064;2023-04-23T04:35:50;1.87;;;1.77;;
73733;SDS011;62039;50.000;9.064;2023-04-23T04:38:17;1.80;;;1.70;;
73733;SDS011;62039;50.000;9.064;2023-04-23T04:40:44;2.10;;;2.00;;
73733;SDS011;62039;50.000;9.064;2023-04-23T04:43:11;1.97;;;1.87;;
73733;SDS011;62039;50.000;9.064;2023-04-23T04:45:38;2.30;;;2.20;;
73733;SDS011;62039;50.000;9.064;2023-04-23T04:48:05;1.90;;;1.73;;
73733;SDS011;62039;50.000;9.064;2023-04-23T04:50:34;2.63;;;2.43;;
73733;SDS011;62039;50.000;9.064;2023-04-23T04:53:01;2.87;;;2.30;;
73733;SDS011;62039;50.000;9.064;2023-04-23T04:55:28;1.70;;;1.60;;
73733;SDS011;62039;50.000;9.064;2023-04-23T04:57:56;1.70;;;1.60;;
73733;SDS011;62039;50.000;9.064;2023-04-23T05:00:23;2.03;;;1.90;;
73733;SDS011;62039;50.000;9.064;2023-04-23T05:02:51;2.50;;;1.80;;
73733;SDS011;62039;50.000;9.064;2023-04-23T05:05:20;2.20;;;2.00;;
73733;SDS011;62039;50.000;9.064;2023-04-23T05:07:51;2.20;;;2.00;;
73733;SDS011;62039;50.000;9.064;2023-04-23T05:10:18;2.40;;;2.20;;
73733;SDS011;62039;50.000;9.064;2023-04-23T05:12:46;2.60;;;2.40;;
73733;SDS011;62039;50.000;9.064;2023-04-23T05:15:13;1.87;;;1.77;;
73733;SDS011;62039;50.000;9.064;2023-04-23T05:17:40;2.53;;;2.00;;
73733;SDS011;62039;50.000;9.064;2023-04-23T05:20:08;2.50;;;2.30;;
73733;SDS011;62039;50.000;9.064;2023-04-23T05:22:36;2.00;;;1.90;;
73733;SDS011;62039;50.000;9.064;2023-04-23T05:25:06;2.20;;;1.93;;
73733;SDS011;62039;50.000;9.064;2023-04-23T05:27:34;1.90;;;1.80;;
73733;SDS011;62039;50.000;9.064;2023-04-23T05:30:01;2.20;;;2.00;;
73733;SDS011;62039;50.000;9.064;2023-04-23T05:32:30;2.30;;;1.90;;
73733;SDS011;62039;50.000;9.064;2023-04-23T05:34:57;2.27;;;2.07;;
73733;SDS011;62039;50.000;9.064;2023-04-23T05:37:24;2.00;;;1.90;;
73733;SDS011;62039;50.000;9.064;2023-04-23T05:39:51;2.40;;;1.93;;
73733;SDS011;62039;50.000;9.064;2023-04-23T05:42:21;1.80;;;1.70;;
73733;SDS011;62039;50.000;9.064;2023-04-23T05:44:48;1.90;;;1.70;;
73733;SDS011;62039;50.000;9.064;2023-04-23T05:47:15;2.10;;;1.90;;
73733;SDS011;62039;50.000;9.064;2023-04-23T05:49:42;1.57;;;1.47;;
73733;SDS011;62039;50.000;9.064;2023-04-23T05:52:09;1.90;;;1.80;;
73733;SDS011;62039;50.000;9.064;2023-04-23T05:54:35;1.73;;;1.60;;
73733;SDS011;62039;50.000;9.064;2023-04-23T05:57:02;2.43;;;2.20;;
73733;SDS011;62039;50.000;9.064;2023-04-23T05:59:32;2.30;;;2.10;;
73733;SDS011;62039;50.000;9.064;2023-04-23T06:01:59;2.23;;;2.03;;
73733;SDS011;62039;50.000;9.064;2023-04-23T06:04:27;2.50;;;2.30;;
73733;SDS011;62039;50.000;9.064;2023-04-23T06:06:54;2.30;;;2.10;;
73733;SDS011;62039;50.000;9.064;2023-04-23T06:09:21;2.60;;;2.40;;
73733;SDS011;62039;50.000;9.064;2023-04-23T06:11:48;2.17;;;1.93;;
73733;SDS011;62039;50.000;9.064;2023-04-23T06:14:17;1.93;;;1.80;;
73733;SDS011;62039;50.000;9.064;2023-04-23T06:16:46;3.10;;;2.20;;
73733;SDS011;62039;50.000;9.064;2023-04-23T06:19:13;2.07;;;1.93;;
73733;SDS011;62039;50.000;9.064;2023-04-23T06:21:40;1.83;;;1.73;;
73733;SDS011;62039;50.000;9.064;2023-04-23T06:24:07;1.97;;;1.87;;
73733;SDS011;62039;50.000;9.064;2023-04-23T06:26:34;1.93;;;1.83;;
73733;SDS011;62039;50.000;9.064;2023-04-23T06:29:01;2.50;;;2.20;;
73733;SDS011;62039;50.000;9.064;2023-04-23T06:31:28;2.30;;;2.10;;
73733;SDS011;62039;50.000;9.064;2023-04-23T06:33:58;1.87;;;1.77;;
73733;SDS011;62039;50.000;9.064;2023-04-23T06:36:25;2.10;;;1.90;;
73733;SDS011;62039;50.000;9.064;2023-04-23T06:38:52;2.00;;;1.80;;
73733;SDS011;62039;50.000;9.064;2023-04-23T06:41:19;1.70;;;1.60;;
73733;SDS011;62039;50.000;9.064;2023-04-23T06:43:46;2.83;;;1.97;;
73733;SDS011;62039;50.000;9.064;2023-04-23T06:46:13;3.60;;;2.70;;
73733;SDS011;62039;50.000;9.064;2023-04-23T06:48:40;2.60;;;2.10;;
73733;SDS011;62039;50.000;9.064;2023-04-23T06:51:09;2.20;;;2.00;;
73733;SDS011;62039;50.000;9.064;2023-04-23T06:53:36;2.27;;;2.07;;
73733;SDS011;62039;50.000;9.064;2023-04-23T06:56:03;2.30;;;2.10;;
73733;SDS011;62039;50.000;9.064;2023-04-23T06:58:30;2.33;;;1.90;;
73733;SDS011;62039;50.000;9.064;2023-04-23T07:00:57;2.10;;;1.90;;
73733;SDS011;62039;50.000;9.064;2023-04-23T07:03:25;2.10;;;1.87;;
73733;SDS011;62039;50.000;9.064;2023-04-23T07:05:52;2.07;;;1.87;;
73733;SDS011;62039;50.000;9.064;2023-04-23T07:08:22;2.03;;;1.87;;
73733;SDS011;62039;50.000;9.064;2023-04-23T07:10:49;2.70;;;2.13;;
73733;SDS011;62039;50.000;9.064;2023-04-23T07:13:16;2.43;;;2.23;;
73733;SDS011;62039;50.000;9.064;2023-04-23T07:15:43;1.90;;;1.80;;
73733;SDS011;62039;50.000;9.064;2023-04-23T07:18:10;3.20;;;2.00;;
73733;SDS011;62039;50.000;9.064;2023-04-23T07:20:37;1.63;;;1.53;;
73733;SDS011;62039;50.000;9.064;2023-04-23T07:23:04;1.60;;;1.50;;
73733;SDS011;62039;50.000;9.064;2023-04-23T07:25:34;1.97;;;1.70;;
73733;SDS011;62039;50.000;9.064;2023-04-23T07:28:00;2.30;;;1.67;;
73733;SDS011;62039;50.000;9.064;2023-04-23T07:30:27;2.00;;;1.80;;
73733;SDS011;62039;50.000;9.064;2023-04-23T07:32:56;2.40;;;1.70;;
73733;SDS011;62039;50.000;9.064;2023-04-23T07:35:23;1.70;;;1.60;;
73733;SDS011;62039;50.000;9.064;2023-04-23T07:37:50;2.17;;;1.97;;
73733;SDS011;62039;50.000;9.064;2023-04-23T07:40:17;1.73;;;1.63;;
73733;SDS011;62039;50.000;9.064;2023-04-23T07:42:46;2.27;;;1.70;;
73733;SDS011;62039;50.000;9.064;2023-04-23T07:45:13;3.23;;;2.00;;
73733;SDS011;62039;50.000;9.064;2023-04-23T07:47:40;2.60;;;2.40;;
73733;SDS011;62039;50.000;9.064;2023-04-23T07:50:08;2.43;;;1.90;;
73733;SDS011;62039;50.000;9.064;2023-04-23T07:52:35;2.37;;;1.80;;
73733;SDS011;62039;50.000;9.064;2023-04-23T07:55:02;2.07;;;1.87;;
73733;SDS011;62039;50.000;9.064;2023-04-23T07:57:30;1.87;;;1.60;;
73733;SDS011;62039;50.000;9.064;2023-04-23T07:59:59;1.60;;;1.50;;
73733;SDS011;62039;50.000;9.064;2023-04-23T08:02:26;1.70;;;1.60;;
73733;SDS011;62039;50.000;9.064;2023-04-23T08:04:54;4.43;;;1.90;;
73733;SDS011;62039;50.000;9.064;2023-04-23T08:07:21;2.37;;;2.03;;
73733;SDS011;62039;50.000;9.064;2023-04-23T08:09:48;3.13;;;1.97;;
73733;SDS011;62039;50.000;9.064;2023-04-23T08:12:15;2.03;;;1.93;;
73733;SDS011;62039;50.000;9.064;2023-04-23T08:14:42;2.03;;;1.80;;
73733;SDS011;62039;50.000;9.064;2023-04-23T08:17:11;2.20;;;1.83;;
73733;SDS011;62039;50.000;9.064;2023-04-23T08:19:38;2.00;;;1.80;;
73733;SDS011;62039;50.000;9.064;2023-04-23T08:22:06;1.67;;;1.57;;
73733;SDS011;62039;50.000;9.064;2023-04-23T08:24:32;2.30;;;2.10;;
73733;SDS011;62039;50.000;9.064;2023-04-23T08:26:59;2.53;;;2.33;;
73733;SDS011;62039;50.000;9.064;2023-04-23T08:29:26;2.13;;;1.93;;
73733;SDS011;62039;50.000;9.064;2023-04-23T08:31:53;3.10;;;2.80;;
73733;SDS011;62039;50.000;9.064;2023-04-23T08:34:23;2.63;;;2.30;;
73733;SDS011;62039;50.000;9.064;2023-04-23T08:36:50;2.13;;;1.93;;
73733;SDS011;62039;50.000;9.064;2023-04-23T08:39:17;2.03;;;1.90;;
73733;SDS011;62039;50.000;9.064;2023-04-23T08:41:43;1.93;;;1.83;;
73733;SDS011;62039;50.000;9.064;2023-04-23T08:44:21;2.40;;;2.20;;
73733;SDS011;62039;50.000;9.064;2023-04-23T08:46:50;2.30;;;2.10;;
73733;SDS011;62039;50.000;9.064;2023-04-23T08:49:19;2.10;;;2.00;;
73733;SDS011;62039;50.000;9.064;2023-04-23T08:51:51;1.73;;;1.63;;
73733;SDS011;62039;50.000;9.064;2023-04-23T08:54:20;1.67;;;1.57;;
73733;SDS011;62039;50.000;9.064;2023-04-23T08:56:51;3.20;;;1.90;;
73733;SDS011;62039;50.000;9.064;2023-04-23T08:59:20;1.77;;;1.60;;
73733;SDS011;62039;50.000;9.064;2023-04-23T09:01:46;1.70;;;1.60;;
73733;SDS011;62039;50.000;9.064;2023-04-23T09:04:13;1.77;;;1.63;;
73733;SDS011;62039;50.000;9.064;2023-04-23T09:06:41;1.50;;;1.37;;
73733;SDS011;62039;50.000;9.064;2023-04-23T09:09:11;2.50;;;1.57;;
73733;SDS011;62039;50.000;9.064;2023-04-23T09:11:39;2.13;;;1.70;;
73733;SDS011;62039;50.000;9.064;2023-04-23T09:14:06;3.80;;;2.20;;
73733;SDS011;62039;50.000;9.064;2023-04-23T09:16:34;1.67;;;1.57;;
73733;SDS011;62039;50.000;9.064;2023-04-23T09:19:01;1.30;;;1.20;;
73733;SDS011;62039;50.000;9.064;2023-04-23T09:21:28;2.57;;;1.70;;
73733;SDS011;62039;50.000;9.064;2023-04-23T09:23:55;1.80;;;1.40;;
73733;SDS011;62039;50.000;9.064;2023-04-23T09:26:25;1.33;;;1.23;;
73733;SDS011;62039;50.000;9.064;2023-04-23T09:28:52;2.00;;;1.50;;
73733;SDS011;62039;50.000;9.064;2023-04-23T09:31:19;1.20;;;1.10;;
73733;SDS011;62039;50.000;9.064;2023-04-23T09:33:49;1.77;;;1.40;;
73733;SDS011;62039;50.000;9.064;2023-04-23T09:36:18;1.97;;;1.17;;
73733;SDS011;62039;50.000;9.064;2023-04-23T09:38:46;1.70;;;1.40;;
73733;SDS011;62039;50.000;9.064;2023-04-23T09:41:20;1.73;;;1.40;;
73733;SDS011;62039;50.000;9.064;2023-04-23T09:43:51;1.80;;;1.43;;
73733;SDS011;62039;50.000;9.064;2023-04-23T09:46:18;1.50;;;1.37;;
73733;SDS011;62039;50.000;9.064;2023-04-23T09:48:58;1.53;;;1.43;;
73733;SDS011;62039;50.000;9.064;2023-04-23T09:51:26;1.40;;;1.30;;
73733;SDS011;62039;50.000;9.064;2023-04-23T09:53:54;1.53;;;1.20;;
73733;SDS011;62039;50.000;9.064;2023-04-23T09:56:22;1.47;;;1.30;;
73733;SDS011;62039;50.000;9.064;2023-04-23T09:58:52;1.73;;;1.43;;
73733;SDS011;62039;50.000;9.064;2023-04-23T10:01:20;1.20;;;1.10;;
73733;SDS011;62039;50.000;9.064;2023-04-23T10:03:53;1.30;;;1.20;;
73733;SDS011;62039;50.000;9.064;2023-04-23T10:06:25;1.30;;;1.20;;
73733;SDS011;62039;50.000;9.064;2023-04-23T10:08:56;1.83;;;1.30;;
73733;SDS011;62039;50.000;9.064;2023-04-23T10:11:23;1.17;;;1.07;;
73733;SDS011;62039;50.000;9.064;2023-04-23T10:13:53;1.87;;;1.23;;
73733;SDS011;62039;50.000;9.064;2023-04-23T10:16:20;1.37;;;1.17;;
73733;SDS011;62039;50.000;9.064;2023-04-23T10:18:55;2.63;;;1.30;;
73733;SDS011;62039;50.000;9.064;2023-04-23T10:21:27;1.90;;;1.20;;
73733;SDS011;62039;50.000;9.064;2023-04-23T10:24:11;1.90;;;1.13;;
73733;SDS011;62039;50.000;9.064;2023-04-23T10:26:40;1.10;;;1.00;;
73733;SDS011;62039;50.000;9.064;2023-04-23T10:29:11;1.03;;;0.93;;
73733;SDS011;62039;50.000;9.064;2023-04-23T10:31:40;1.10;;;1.00;;
73733;SDS011;62039;50.000;9.064;2023-04-23T10:34:08;1.23;;;0.90;;
73733;SDS011;62039;50.000;9.064;2023-04-23T10:36:36;1.77;;;1.00;;
73733;SDS011;62039;50.000;9.064;2023-04-23T10:39:03;0.73;;;0.73;;
73733;SDS011;62039;50.000;9.064;2023-04-23T10:41:33;1.27;;;1.17;;
73733;SDS011;62039;50.000;9.064;2023-04-23T10:44:02;1.40;;;1.10;;
73733;SDS011;62039;50.000;9.064;2023-04-23T10:46:32;1.53;;;0.90;;
73733;SDS011;62039;50.000;9.064;2023-04-23T10:49:04;1.47;;;1.00;;
73733;SDS011;62039;50.000;9.064;2023-04-23T10:51:32;1.30;;;1.20;;
73733;SDS011;62039;50.000;9.064;2023-04-23T10:54:19;1.23;;;1.10;;
73733;SDS011;62039;50.000;9.064;2023-04-23T10:56:46;1.40;;;1.30;;
73733;SDS011;62039;50.000;9.064;2023-04-23T10:59:24;1.60;;;1.50;;
73733;SDS011;62039;50.000;9.064;2023-04-23T11:01:54;1.87;;;1.40;;
73733;SDS011;62039;50.000;9.064;2023-04-23T11:04:22;1.30;;;1.00;;
73733;SDS011;62039;50.000;9.064;2023-04-23T11:06:54;1.27;;;1.10;;
73733;SDS011;62039;50.000;9.064;2023-04-23T11:09:29;1.97;;;1.20;;
73733;SDS011;62039;50.000;9.064;2023-04-23T11:11:57;1.23;;;1.10;;
73733;SDS011;62039;50.000;9.064;2023-04-23T11:17:15;1.53;;;0.90;;
73733;SDS011;62039;50.000;9.064;2023-04-23T11:22:33;1.23;;;0.80;;
73733;SDS011;62039;50.000;9.064;2023-04-23T11:25:00;1.33;;;0.77;;
73733;SDS011;62039;50.000;9.064;2023-04-23T11:27:27;1.40;;;0.80;;
73733;SDS011;62039;50.000;9.064;2023-04-23T11:29:55;0.70;;;0.70;;
73733;SDS011;62039;50.000;9.064;2023-04-23T11:32:27;1.30;;;0.80;;
73733;SDS011;62039;50.000;9.064;2023-04-23T11:34:55;1.25;;;1.00;;
73733;SDS011;62039;50.000;9.064;2023-04-23T11:37:23;0.90;;;0.80;;
73733;SDS011;62039;50.000;9.064;2023-04-23T11:39:50;1.37;;;1.00;;
73733;SDS011;62039;50.000;9.064;2023-04-23T11:42:19;0.60;;;0.60;;
73733;SDS011;62039;50.000;9.064;2023-04-23T11:44:46;0.83;;;0.73;;
73733;SDS011;62039;50.000;9.064;2023-04-23T11:47:14;1.07;;;0.80;;
73733;SDS011;62039;50.000;9.064;2023-04-23T11:49:44;1.70;;;0.80;;
73733;SDS011;62039;50.000;9.064;2023-04-23T11:52:11;0.77;;;0.77;;
73733;SDS011;62039;50.000;9.064;2023-04-23T11:54:39;0.87;;;0.87;;
73733;SDS011;62039;50.000;9.064;2023-04-23T11:57:07;1.00;;;0.90;;
73733;SDS011;62039;50.000;9.064;2023-04-23T11:59:34;1.00;;;0.87;;
73733;SDS011;62039;50.000;9.064;2023-04-23T12:02:01;0.97;;;0.73;;
73733;SDS011;62039;50.000;9.064;2023-04-23T12:04:28;1.63;;;1.17;;
73733;SDS011;62039;50.000;9.064;2023-04-23T12:06:59;1.10;;;1.00;;
73733;SDS011;62039;50.000;9.064;2023-04-23T12:09:35;1.40;;;0.97;;
73733;SDS011;62039;50.000;9.064;2023-04-23T12:12:02;1.10;;;1.00;;
73733;SDS011;62039;50.000;9.064;2023-04-23T12:14:29;1.57;;;0.90;;
73733;SDS011;62039;50.000;9.064;2023-04-23T12:16:57;0.77;;;0.77;;
73733;SDS011;62039;50.000;9.064;2023-04-23T12:19:34;1.57;;;0.90;;
73733;SDS011;62039;50.000;9.064;2023-04-23T12:22:03;1.03;;;0.93;;
73733;SDS011;62039;50.000;9.064;2023-04-23T12:24:31;0.97;;;0.87;;
73733;SDS011;62039;50.000;9.064;2023-04-23T12:27:12;1.67;;;1.07;;
73733;SDS011;62039;50.000;9.064;2023-04-23T12:29:40;0.90;;;0.90;;
73733;SDS011;62039;50.000;9.064;2023-04-23T12:32:09;1.37;;;1.00;;
73733;SDS011;62039;50.000;9.064;2023-04-23T12:34:40;1.17;;;0.80;;
73733;SDS011;62039;50.000;9.064;2023-04-23T12:37:22;1.37;;;0.90;;
73733;SDS011;62039;50.000;9.064;2023-04-23T12:39:49;1.30;;;1.07;;
73733;SDS011;62039;50.000;9.064;2023-04-23T12:42:16;2.17;;;1.97;;
73733;SDS011;62039;50.000;9.064;2023-04-23T12:44:43;1.80;;;1.20;;
73733;SDS011;62039;50.000;9.064;2023-04-23T12:47:10;0.93;;;0.83;;
73733;SDS011;62039;50.000;9.064;2023-04-23T12:49:38;1.07;;;0.97;;
73733;SDS011;62039;50.000;9.064;2023-04-23T12:52:10;1.07;;;0.97;;
73733;SDS011;62039;50.000;9.064;2023-04-23T12:54:41;1.00;;;0.80;;
73733;SDS011;62039;50.000;9.064;2023-04-23T12:57:09;0.67;;;0.63;;
73733;SDS011;62039;50.000;9.064;2023-04-23T12:59:38;1.10;;;0.77;;
73733;SDS011;62039;50.000;9.064;2023-04-23T13:02:08;1.10;;;1.00;;
73733;SDS011;62039;50.000;9.064;2023-04-23T13:04:35;0.80;;;0.80;;
73733;SDS011;62039;50.000;9.064;2023-04-23T13:07:03;1.10;;;1.00;;
73733;SDS011;62039;50.000;9.064;2023-04-23T13:09:30;0.80;;;0.80;;
73733;SDS011;62039;50.000;9.064;2023-04-23T13:12:00;0.77;;;0.77;;
73733;SDS011;62039;50.000;9.064;2023-04-23T13:14:27;0.87;;;0.83;;
73733;SDS011;62039;50.000;9.064;2023-04-23T13:16:54;1.23;;;0.80;;
73733;SDS011;62039;50.000;9.064;2023-04-23T13:19:21;0.60;;;0.60;;
73733;SDS011;62039;50.000;9.064;2023-04-23T13:21:48;0.80;;;0.80;;
73733;SDS011;62039;50.000;9.064;2023-04-23T13:24:14;0.70;;;0.70;;
73733;SDS011;62039;50.000;9.064;2023-04-23T13:26:42;0.80;;;0.77;;
73733;SDS011;62039;50.000;9.064;2023-04-23T13:29:11;1.10;;;0.70;;
73733;SDS011;62039;50.000;9.064;2023-04-23T13:31:38;0.53;;;0.53;;
73733;SDS011;62039;50.000;9.064;2023-04-23T13:34:05;1.70;;;0.63;;
73733;SDS011;62039;50.000;9.064;2023-04-23T13:36:32;0.70;;;0.57;;
73733;SDS011;62039;50.000;9.064;2023-04-23T13:38:59;0.50;;;0.50;;
73733;SDS011;62039;50.000;9.064;2023-04-23T13:41:26;1.03;;;0.77;;
73733;SDS011;62039;50.000;9.064;2023-04-23T13:43:53;1.57;;;0.90;;
73733;SDS011;62039;50.000;9.064;2023-04-23T13:46:22;0.80;;;0.80;;
73733;SDS011;62039;50.000;9.064;2023-04-23T13:48:50;1.20;;;0.97;;
73733;SDS011;62039;50.000;9.064;2023-04-23T13:51:18;1.07;;;0.90;;
73733;SDS011;62039;50.000;9.064;2023-04-23T13:54:00;0.90;;;0.70;;
73733;SDS011;62039;50.000;9.064;2023-04-23T13:56:27;0.70;;;0.70;;
73733;SDS011;62039;50.000;9.064;2023-04-23T13:58:55;1.27;;;0.90;;
73733;SDS011;62039;50.000;9.064;2023-04-23T14:01:45;0.70;;;0.70;;
73733;SDS011;62039;50.000;9.064;2023-04-23T14:04:12;0.83;;;0.80;;
73733;SDS011;62039;50.000;9.064;2023-04-23T14:06:39;0.77;;;0.70;;
73733;SDS011;62039;50.000;9.064;2023-04-23T14:09:07;0.73;;;0.67;;
73733;SDS011;62039;50.000;9.064;2023-04-23T14:11:34;0.80;;;0.70;;
73733;SDS011;62039;50.000;9.064;2023-04-23T14:14:01;0.70;;;0.70;;
73733;SDS011;62039;50.000;9.064;2023-04-23T14:16:28;1.57;;;0.80;;
73733;SDS011;62039;50.000;9.064;2023-04-23T14:18:58;1.13;;;0.77;;
73733;SDS011;62039;50.000;9.064;2023-04-23T14:21:25;0.70;;;0.70;;
73733;SDS011;62039;50.000;9.064;2023-04-23T14:23:54;0.80;;;0.70;;
73733;SDS011;62039;50.000;9.064;2023-04-23T14:26:27;0.50;;;0.50;;
73733;SDS011;62039;50.000;9.064;2023-04-23T14:29:01;0.60;;;0.60;;
73733;SDS011;62039;50.000;9.064;2023-04-23T14:31:29;0.70;;;0.70;;
73733;SDS011;62039;50.000;9.064;2023-04-23T14:33:59;0.70;;;0.70;;
73733;SDS011;62039;50.000;9.064;2023-04-23T14:36:26;1.03;;;0.70;;
73733;SDS011;62039;50.000;9.064;2023-04-23T14:38:53;0.80;;;0.63;;
73733;SDS011;62039;50.000;9.064;2023-04-23T14:41:20;1.20;;;0.80;;
73733;SDS011;62039;50.000;9.064;2023-04-23T14:43:47;0.83;;;0.60;;
73733;SDS011;62039;50.000;9.064;2023-04-23T14:46:14;2.67;;;0.53;;
73733;SDS011;62039;50.000;9.064;2023-04-23T14:48:41;1.20;;;1.00;;
73733;SDS011;62039;50.000;9.064;2023-04-23T14:51:11;0.70;;;0.70;;
73733;SDS011;62039;50.000;9.064;2023-04-23T14:53:38;0.70;;;0.63;;
73733;SDS011;62039;50.000;9.064;2023-04-23T14:56:05;1.40;;;0.80;;
73733;SDS011;62039;50.000;9.064;2023-04-23T14:58:32;0.93;;;0.80;;